Time;durP1;ratioP1;P1;durP2;ratioP2;P2;SDS_P1;SDS_P2;PMS_P1;PMS_P2;Temp;Humidity;BMP_temperature;BMP_pressure;BME280_temperature;BME280_humidity;BME280_pressure;Samples;Min_cycle;Max_cycle;Signal;HPM_P1;HPM_P2
2022/08/19 00:00:00;;;;;;;0.6;0.6;;;;;;;21.7;100.0;101050;;;;
2022/08/19 00:01:00;;;;;;;0.6;0.6;;;;;;;21.7;100.0;101050;;;;
2022/08/19 00:02:00;;;;;;;0.6;0.6;;;;;;;21.6;100.0;101050;;;;
2022/08/19 00:03:00;;;;;;;0.6;0.6;;;;;;;21.6;100.0;101050;;;;
2022/08/19 00:04:01;;;;;;;0.6;0.6;;;;;;;21.6;100.0;101050;;;;
2022/08/19 00:05:00;;;;;;;0.5;0.5;;;;;;;21.6;100.0;101050;;;;
2022/08/19 00:06:00;;;;;;;0.5;0.5;;;;;;;21.7;100.0;101050;;;;
2022/08/19 00:07:00;;;;;;;0.5;0.5;;;;;;;21.7;100.0;101050;;;;
2022/08/19 00:08:00;;;;;;;0.5;0.5;;;;;;;21.6;100.0;101050;;;;
2022/08/19 00:09:00;;;;;;;0.5;0.5;;;;;;;21.6;100.0;101050;;;;
2022/08/19 00:10:00;;;;;;;0.5;0.5;;;;;;;21.6;100.0;101050;;;;
2022/08/19 00:11:00;;;;;;;0.5;0.5;;;;;;;21.6;100.0;101050;;;;
2022/08/19 00:12:00;;;;;;;0.5;0.5;;;;;;;21.6;100.0;101050;;;;
2022/08/19 00:13:00;;;;;;;0.5;0.5;;;;;;;21.6;100.0;101050;;;;
2022/08/19 00:14:00;;;;;;;0.5;0.5;;;;;;;21.5;100.0;101050;;;;
2022/08/19 00:15:00;;;;;;;0.5;0.5;;;;;;;21.5;100.0;101050;;;;
2022/08/19 00:16:00;;;;;;;0.5;0.5;;;;;;;21.5;100.0;101050;;;;
2022/08/19 00:17:00;;;;;;;0.5;0.5;;;;;;;21.5;100.0;101050;;;;
2022/08/19 00:18:00;;;;;;;0.5;0.5;;;;;;;21.5;100.0;101050;;;;
2022/08/19 00:19:00;;;;;;;0.5;0.5;;;;;;;21.5;100.0;101050;;;;
2022/08/19 00:20:00;;;;;;;0.5;0.5;;;;;;;21.5;100.0;101050;;;;
2022/08/19 00:21:00;;;;;;;0.5;0.5;;;;;;;21.5;100.0;101050;;;;
2022/08/19 00:22:00;;;;;;;0.5;0.5;;;;;;;21.5;100.0;101050;;;;
2022/08/19 00:23:00;;;;;;;0.5;0.5;;;;;;;21.5;100.0;101050;;;;
2022/08/19 00:24:00;;;;;;;0.5;0.5;;;;;;;21.4;100.0;101050;;;;
2022/08/19 00:25:02;;;;;;;0.8;0.8;;;;;;;21.4;100.0;101050;;;;
2022/08/19 00:26:00;;;;;;;0.8;0.8;;;;;;;21.5;100.0;101050;;;;
2022/08/19 00:27:10;;;;;;;0.8;0.8;;;;;;;21.4;100.0;101050;;;;
2022/08/19 00:28:00;;;;;;;0.8;0.8;;;;;;;21.4;100.0;101050;;;;
2022/08/19 00:29:00;;;;;;;0.8;0.8;;;;;;;21.4;100.0;101050;;;;
2022/08/19 00:30:02;;;;;;;0.8;0.8;;;;;;;21.4;100.0;101050;;;;
2022/08/19 00:31:01;;;;;;;0.8;0.8;;;;;;;21.4;100.0;101050;;;;
2022/08/19 00:32:00;;;;;;;0.8;0.8;;;;;;;21.4;100.0;101050;;;;
2022/08/19 00:33:00;;;;;;;0.8;0.8;;;;;;;21.4;100.0;101050;;;;
2022/08/19 00:34:00;;;;;;;0.8;0.8;;;;;;;21.3;100.0;101050;;;;
2022/08/19 00:35:00;;;;;;;0.8;0.8;;;;;;;21.3;100.0;101050;;;;
2022/08/19 00:36:00;;;;;;;0.8;0.8;;;;;;;21.3;100.0;101050;;;;
2022/08/19 00:37:00;;;;;;;0.8;0.8;;;;;;;21.3;100.0;101050;;;;
2022/08/19 00:38:00;;;;;;;0.8;0.8;;;;;;;21.2;100.0;101060;;;;
2022/08/19 00:39:00;;;;;;;0.8;0.8;;;;;;;21.2;100.0;101060;;;;
2022/08/19 00:40:02;;;;;;;0.8;0.8;;;;;;;21.2;100.0;101060;;;;
2022/08/19 00:41:00;;;;;;;0.8;0.8;;;;;;;21.2;100.0;101060;;;;
2022/08/19 00:42:00;;;;;;;0.8;0.8;;;;;;;21.2;100.0;101060;;;;
2022/08/19 00:43:00;;;;;;;0.8;0.8;;;;;;;21.2;100.0;101060;;;;
2022/08/19 00:44:03;;;;;;;0.8;0.8;;;;;;;21.1;100.0;101060;;;;
2022/08/19 00:45:00;;;;;;;0.9;0.8;;;;;;;21.1;100.0;101060;;;;
2022/08/19 00:46:04;;;;;;;0.9;0.8;;;;;;;21.2;100.0;101060;;;;
2022/08/19 00:47:01;;;;;;;0.9;0.8;;;;;;;21.2;100.0;101060;;;;
2022/08/19 00:48:03;;;;;;;0.9;0.8;;;;;;;21.2;100.0;101060;;;;
2022/08/19 00:49:02;;;;;;;0.9;0.8;;;;;;;21.2;100.0;101060;;;;
2022/08/19 00:50:00;;;;;;;0.9;0.8;;;;;;;21.2;100.0;101070;;;;
2022/08/19 00:51:00;;;;;;;0.9;0.8;;;;;;;21.2;100.0;101070;;;;
2022/08/19 00:52:03;;;;;;;0.9;0.8;;;;;;;21.2;100.0;101060;;;;
2022/08/19 00:53:03;;;;;;;0.9;0.8;;;;;;;21.2;100.0;101060;;;;
2022/08/19 00:54:01;;;;;;;0.9;0.8;;;;;;;21.2;100.0;101060;;;;
2022/08/19 00:55:01;;;;;;;0.9;0.8;;;;;;;21.2;100.0;101060;;;;
2022/08/19 00:56:00;;;;;;;0.9;0.8;;;;;;;21.1;100.0;101060;;;;
2022/08/19 00:57:03;;;;;;;0.9;0.8;;;;;;;21.1;100.0;101060;;;;
2022/08/19 00:58:03;;;;;;;0.9;0.8;;;;;;;21.1;100.0;101060;;;;
2022/08/19 00:59:01;;;;;;;0.9;0.8;;;;;;;21.1;100.0;101060;;;;
2022/08/19 01:00:04;;;;;;;0.9;0.8;;;;;;;21.0;100.0;101060;;;;
2022/08/19 01:01:00;;;;;;;0.9;0.8;;;;;;;21.0;100.0;101060;;;;
2022/08/19 01:02:00;;;;;;;0.9;0.8;;;;;;;21.1;100.0;101060;;;;
2022/08/19 01:03:00;;;;;;;0.9;0.8;;;;;;;21.1;100.0;101060;;;;
2022/08/19 01:04:00;;;;;;;0.9;0.8;;;;;;;21.0;100.0;101060;;;;
2022/08/19 01:05:02;;;;;;;0.4;0.4;;;;;;;21.0;100.0;101060;;;;
2022/08/19 01:06:00;;;;;;;0.4;0.4;;;;;;;21.0;100.0;101060;;;;
2022/08/19 01:07:01;;;;;;;0.4;0.4;;;;;;;21.0;100.0;101060;;;;
2022/08/19 01:08:02;;;;;;;0.4;0.4;;;;;;;21.0;100.0;101060;;;;
2022/08/19 01:09:00;;;;;;;0.4;0.4;;;;;;;21.0;100.0;101060;;;;
2022/08/19 01:10:00;;;;;;;0.4;0.4;;;;;;;21.0;100.0;101060;;;;
2022/08/19 01:11:00;;;;;;;0.4;0.4;;;;;;;21.0;100.0;101060;;;;
2022/08/19 01:12:00;;;;;;;0.4;0.4;;;;;;;21.0;100.0;101060;;;;
2022/08/19 01:13:01;;;;;;;0.4;0.4;;;;;;;21.0;100.0;101060;;;;
2022/08/19 01:14:00;;;;;;;0.4;0.4;;;;;;;21.0;100.0;101060;;;;
2022/08/19 01:15:00;;;;;;;0.4;0.4;;;;;;;21.0;100.0;101060;;;;
2022/08/19 01:16:06;;;;;;;0.4;0.4;;;;;;;21.0;100.0;101060;;;;
2022/08/19 01:17:00;;;;;;;0.4;0.4;;;;;;;21.0;100.0;101060;;;;
2022/08/19 01:18:04;;;;;;;0.4;0.4;;;;;;;20.9;100.0;101060;;;;
2022/08/19 01:19:00;;;;;;;0.4;0.4;;;;;;;20.9;100.0;101060;;;;
2022/08/19 01:20:00;;;;;;;0.4;0.4;;;;;;;20.9;100.0;101060;;;;
2022/08/19 01:21:01;;;;;;;0.4;0.4;;;;;;;20.9;100.0;101060;;;;
2022/08/19 01:22:13;;;;;;;0.4;0.4;;;;;;;20.9;100.0;101060;;;;
2022/08/19 01:23:00;;;;;;;0.4;0.4;;;;;;;20.9;100.0;101060;;;;
2022/08/19 01:24:00;;;;;;;0.4;0.4;;;;;;;20.9;100.0;101060;;;;
2022/08/19 01:25:00;;;;;;;1.4;1.3;;;;;;;20.9;100.0;101060;;;;
2022/08/19 01:26:00;;;;;;;1.4;1.3;;;;;;;20.9;100.0;101060;;;;
2022/08/19 01:27:03;;;;;;;1.4;1.3;;;;;;;20.9;100.0;101060;;;;
2022/08/19 01:28:10;;;;;;;1.4;1.3;;;;;;;20.9;100.0;101060;;;;
2022/08/19 01:29:01;;;;;;;1.4;1.3;;;;;;;20.9;100.0;101060;;;;
2022/08/19 01:30:00;;;;;;;1.4;1.3;;;;;;;20.9;100.0;101060;;;;
2022/08/19 01:31:00;;;;;;;1.4;1.3;;;;;;;20.9;100.0;101060;;;;
2022/08/19 01:32:00;;;;;;;1.4;1.3;;;;;;;20.8;100.0;101060;;;;
2022/08/19 01:33:00;;;;;;;1.4;1.3;;;;;;;20.8;100.0;101060;;;;
2022/08/19 01:34:01;;;;;;;1.4;1.3;;;;;;;20.8;100.0;101060;;;;
2022/08/19 01:35:01;;;;;;;1.4;1.3;;;;;;;20.8;100.0;101060;;;;
2022/08/19 01:36:10;;;;;;;1.4;1.3;;;;;;;20.8;100.0;101060;;;;
2022/08/19 01:37:05;;;;;;;1.4;1.3;;;;;;;20.8;100.0;101060;;;;
2022/08/19 01:38:02;;;;;;;1.4;1.3;;;;;;;20.7;100.0;101060;;;;
2022/08/19 01:39:01;;;;;;;1.4;1.3;;;;;;;20.7;100.0;101060;;;;
2022/08/19 01:40:00;;;;;;;1.4;1.3;;;;;;;20.6;100.0;101070;;;;
2022/08/19 01:41:01;;;;;;;1.4;1.3;;;;;;;20.6;100.0;101070;;;;
2022/08/19 01:42:02;;;;;;;1.4;1.3;;;;;;;20.6;100.0;101060;;;;
2022/08/19 01:43:00;;;;;;;1.4;1.3;;;;;;;20.6;100.0;101060;;;;
2022/08/19 01:44:10;;;;;;;1.4;1.3;;;;;;;20.7;100.0;101060;;;;
2022/08/19 01:45:00;;;;;;;0.5;0.5;;;;;;;20.7;100.0;101060;;;;
2022/08/19 01:46:00;;;;;;;0.5;0.5;;;;;;;20.7;100.0;101060;;;;
2022/08/19 01:47:00;;;;;;;0.5;0.5;;;;;;;20.7;100.0;101060;;;;
2022/08/19 01:48:02;;;;;;;0.5;0.5;;;;;;;20.6;100.0;101060;;;;
2022/08/19 01:49:01;;;;;;;0.5;0.5;;;;;;;20.6;100.0;101060;;;;
2022/08/19 01:50:00;;;;;;;0.5;0.5;;;;;;;20.6;100.0;101060;;;;
2022/08/19 01:51:00;;;;;;;0.5;0.5;;;;;;;20.6;100.0;101060;;;;
2022/08/19 01:52:00;;;;;;;0.5;0.5;;;;;;;20.6;100.0;101060;;;;
2022/08/19 01:53:06;;;;;;;0.5;0.5;;;;;;;20.7;100.0;101060;;;;
2022/08/19 01:54:00;;;;;;;0.5;0.5;;;;;;;20.7;100.0;101060;;;;
2022/08/19 01:55:00;;;;;;;0.5;0.5;;;;;;;20.7;100.0;101060;;;;
2022/08/19 01:56:00;;;;;;;0.5;0.5;;;;;;;20.6;100.0;101060;;;;
2022/08/19 01:57:02;;;;;;;0.5;0.5;;;;;;;20.6;100.0;101060;;;;
2022/08/19 01:58:01;;;;;;;0.5;0.5;;;;;;;20.6;100.0;101070;;;;
2022/08/19 01:59:01;;;;;;;0.5;0.5;;;;;;;20.6;100.0;101070;;;;
2022/08/19 02:00:01;;;;;;;0.5;0.5;;;;;;;20.6;100.0;101070;;;;
2022/08/19 02:01:00;;;;;;;0.5;0.5;;;;;;;20.6;100.0;101070;;;;
2022/08/19 02:02:00;;;;;;;0.5;0.5;;;;;;;20.6;100.0;101070;;;;
2022/08/19 02:03:00;;;;;;;0.5;0.5;;;;;;;20.6;100.0;101070;;;;
2022/08/19 02:04:00;;;;;;;0.5;0.5;;;;;;;20.5;100.0;101070;;;;
2022/08/19 02:05:00;;;;;;;0.3;0.3;;;;;;;20.5;100.0;101070;;;;
2022/08/19 02:06:02;;;;;;;0.3;0.3;;;;;;;20.6;100.0;101070;;;;
2022/08/19 02:07:00;;;;;;;0.3;0.3;;;;;;;20.6;100.0;101070;;;;
2022/08/19 02:08:00;;;;;;;0.3;0.3;;;;;;;20.5;100.0;101080;;;;
2022/08/19 02:09:00;;;;;;;0.3;0.3;;;;;;;20.5;100.0;101080;;;;
2022/08/19 02:10:08;;;;;;;0.3;0.3;;;;;;;20.5;100.0;101080;;;;
2022/08/19 02:11:00;;;;;;;0.3;0.3;;;;;;;20.5;100.0;101080;;;;
2022/08/19 02:12:00;;;;;;;0.3;0.3;;;;;;;20.5;100.0;101080;;;;
2022/08/19 02:13:00;;;;;;;0.3;0.3;;;;;;;20.5;100.0;101080;;;;
2022/08/19 02:14:01;;;;;;;0.3;0.3;;;;;;;20.5;100.0;101070;;;;
2022/08/19 02:15:01;;;;;;;0.3;0.3;;;;;;;20.5;100.0;101070;;;;
2022/08/19 02:16:04;;;;;;;0.3;0.3;;;;;;;20.4;100.0;101080;;;;
2022/08/19 02:17:00;;;;;;;0.3;0.3;;;;;;;20.4;100.0;101080;;;;
2022/08/19 02:18:00;;;;;;;0.3;0.3;;;;;;;20.4;100.0;101080;;;;
2022/08/19 02:19:00;;;;;;;0.3;0.3;;;;;;;20.4;100.0;101080;;;;
2022/08/19 02:20:00;;;;;;;0.3;0.3;;;;;;;20.4;100.0;101100;;;;
2022/08/19 02:21:00;;;;;;;0.3;0.3;;;;;;;20.4;100.0;101100;;;;
2022/08/19 02:22:00;;;;;;;0.3;0.3;;;;;;;20.4;100.0;101090;;;;
2022/08/19 02:23:01;;;;;;;0.3;0.3;;;;;;;20.4;100.0;101090;;;;
2022/08/19 02:24:00;;;;;;;0.3;0.3;;;;;;;20.4;100.0;101090;;;;
2022/08/19 02:25:00;;;;;;;1.2;1.2;;;;;;;20.4;100.0;101090;;;;
2022/08/19 02:26:00;;;;;;;1.2;1.2;;;;;;;20.4;100.0;101090;;;;
2022/08/19 02:27:00;;;;;;;1.2;1.2;;;;;;;20.4;100.0;101090;;;;
2022/08/19 02:28:00;;;;;;;1.2;1.2;;;;;;;20.4;100.0;101080;;;;
2022/08/19 02:29:00;;;;;;;1.2;1.2;;;;;;;20.4;100.0;101080;;;;
2022/08/19 02:30:00;;;;;;;1.2;1.2;;;;;;;20.3;100.0;101080;;;;
2022/08/19 02:31:02;;;;;;;1.2;1.2;;;;;;;20.3;100.0;101080;;;;
2022/08/19 02:32:00;;;;;;;1.2;1.2;;;;;;;20.3;100.0;101080;;;;
2022/08/19 02:33:00;;;;;;;1.2;1.2;;;;;;;20.3;100.0;101080;;;;
2022/08/19 02:34:00;;;;;;;1.2;1.2;;;;;;;20.3;100.0;101080;;;;
2022/08/19 02:35:00;;;;;;;1.2;1.2;;;;;;;20.3;100.0;101080;;;;
2022/08/19 02:36:02;;;;;;;1.2;1.2;;;;;;;20.2;100.0;101080;;;;
2022/08/19 02:37:04;;;;;;;1.2;1.2;;;;;;;20.2;100.0;101080;;;;
2022/08/19 02:39:00;;;;;;;1.2;1.2;;;;;;;20.2;100.0;101080;;;;
2022/08/19 02:40:00;;;;;;;1.2;1.2;;;;;;;20.1;100.0;101080;;;;
2022/08/19 02:41:02;;;;;;;1.2;1.2;;;;;;;20.1;100.0;101080;;;;
2022/08/19 02:42:01;;;;;;;1.2;1.2;;;;;;;20.1;100.0;101090;;;;
2022/08/19 02:43:02;;;;;;;1.2;1.2;;;;;;;20.1;100.0;101090;;;;
2022/08/19 02:44:11;;;;;;;1.2;1.2;;;;;;;20.1;100.0;101090;;;;
2022/08/19 02:45:00;;;;;;;0.7;0.7;;;;;;;20.1;100.0;101090;;;;
2022/08/19 02:46:00;;;;;;;0.7;0.7;;;;;;;20.1;100.0;101090;;;;
2022/08/19 02:47:00;;;;;;;0.7;0.7;;;;;;;20.1;100.0;101090;;;;
2022/08/19 02:48:04;;;;;;;0.7;0.7;;;;;;;20.1;100.0;101090;;;;
2022/08/19 02:49:02;;;;;;;0.7;0.7;;;;;;;20.1;100.0;101090;;;;
2022/08/19 02:50:01;;;;;;;0.7;0.7;;;;;;;20.1;100.0;101100;;;;
2022/08/19 02:51:00;;;;;;;0.7;0.7;;;;;;;20.1;100.0;101100;;;;
2022/08/19 02:52:00;;;;;;;0.7;0.7;;;;;;;20.1;100.0;101090;;;;
2022/08/19 02:53:00;;;;;;;0.7;0.7;;;;;;;20.1;100.0;101090;;;;
2022/08/19 02:54:00;;;;;;;0.7;0.7;;;;;;;20.1;100.0;101100;;;;
2022/08/19 02:55:00;;;;;;;0.7;0.7;;;;;;;20.1;100.0;101100;;;;
2022/08/19 02:56:00;;;;;;;0.7;0.7;;;;;;;20.0;100.0;101100;;;;
2022/08/19 02:57:00;;;;;;;0.7;0.7;;;;;;;20.0;100.0;101100;;;;
2022/08/19 02:58:00;;;;;;;0.7;0.7;;;;;;;20.0;100.0;101100;;;;
2022/08/19 02:59:00;;;;;;;0.7;0.7;;;;;;;20.0;100.0;101100;;;;
2022/08/19 03:00:01;;;;;;;0.7;0.7;;;;;;;20.0;100.0;101100;;;;
2022/08/19 03:01:00;;;;;;;0.7;0.7;;;;;;;20.0;100.0;101100;;;;
2022/08/19 03:02:00;;;;;;;0.7;0.7;;;;;;;19.9;100.0;101090;;;;
2022/08/19 03:03:00;;;;;;;0.7;0.7;;;;;;;19.9;100.0;101090;;;;
2022/08/19 03:04:01;;;;;;;0.7;0.7;;;;;;;19.9;100.0;101090;;;;
2022/08/19 03:05:01;;;;;;;1.1;0.6;;;;;;;19.9;100.0;101090;;;;
2022/08/19 03:06:04;;;;;;;1.1;0.6;;;;;;;20.0;100.0;101090;;;;
2022/08/19 03:07:10;;;;;;;1.1;0.6;;;;;;;19.9;100.0;101090;;;;
2022/08/19 03:08:00;;;;;;;1.1;0.6;;;;;;;19.9;100.0;101090;;;;
2022/08/19 03:09:00;;;;;;;1.1;0.6;;;;;;;19.9;100.0;101090;;;;
2022/08/19 03:10:00;;;;;;;1.1;0.6;;;;;;;19.9;100.0;101090;;;;
2022/08/19 03:11:00;;;;;;;1.1;0.6;;;;;;;19.9;100.0;101090;;;;
2022/08/19 03:12:00;;;;;;;1.1;0.6;;;;;;;19.9;100.0;101090;;;;
2022/08/19 03:13:04;;;;;;;1.1;0.6;;;;;;;19.9;100.0;101090;;;;
2022/08/19 03:14:00;;;;;;;1.1;0.6;;;;;;;19.9;100.0;101100;;;;
2022/08/19 03:15:00;;;;;;;1.1;0.6;;;;;;;19.9;100.0;101100;;;;
2022/08/19 03:16:04;;;;;;;1.1;0.6;;;;;;;19.9;100.0;101100;;;;
2022/08/19 03:17:00;;;;;;;1.1;0.6;;;;;;;19.9;100.0;101100;;;;
2022/08/19 03:18:00;;;;;;;1.1;0.6;;;;;;;19.9;100.0;101100;;;;
2022/08/19 03:19:00;;;;;;;1.1;0.6;;;;;;;19.9;100.0;101100;;;;
2022/08/19 03:20:00;;;;;;;1.1;0.6;;;;;;;19.8;100.0;101100;;;;
2022/08/19 03:21:00;;;;;;;1.1;0.6;;;;;;;19.8;100.0;101100;;;;
2022/08/19 03:22:00;;;;;;;1.1;0.6;;;;;;;19.7;100.0;101100;;;;
2022/08/19 03:23:00;;;;;;;1.1;0.6;;;;;;;19.7;100.0;101100;;;;
2022/08/19 03:24:02;;;;;;;1.1;0.6;;;;;;;19.8;100.0;101100;;;;
2022/08/19 03:25:00;;;;;;;1.5;1.4;;;;;;;19.8;100.0;101100;;;;
2022/08/19 03:26:14;;;;;;;1.5;1.4;;;;;;;19.8;100.0;101100;;;;
2022/08/19 03:27:00;;;;;;;1.5;1.4;;;;;;;19.8;100.0;101100;;;;
2022/08/19 03:28:00;;;;;;;1.5;1.4;;;;;;;19.8;100.0;101110;;;;
2022/08/19 03:29:05;;;;;;;1.5;1.4;;;;;;;19.7;100.0;101100;;;;
2022/08/19 03:30:01;;;;;;;1.5;1.4;;;;;;;19.7;100.0;101100;;;;
2022/08/19 03:31:01;;;;;;;1.5;1.4;;;;;;;19.7;100.0;101100;;;;
2022/08/19 03:32:01;;;;;;;1.5;1.4;;;;;;;19.7;100.0;101100;;;;
2022/08/19 03:33:00;;;;;;;1.5;1.4;;;;;;;19.7;100.0;101100;;;;
2022/08/19 03:34:00;;;;;;;1.5;1.4;;;;;;;19.7;100.0;101100;;;;
2022/08/19 03:35:00;;;;;;;1.5;1.4;;;;;;;19.7;100.0;101100;;;;
2022/08/19 03:36:01;;;;;;;1.5;1.4;;;;;;;19.6;100.0;101100;;;;
2022/08/19 03:37:03;;;;;;;1.5;1.4;;;;;;;19.6;100.0;101100;;;;
2022/08/19 03:38:00;;;;;;;1.5;1.4;;;;;;;19.6;100.0;101100;;;;
2022/08/19 03:39:00;;;;;;;1.5;1.4;;;;;;;19.6;100.0;101100;;;;
2022/08/19 03:40:01;;;;;;;1.5;1.4;;;;;;;19.6;100.0;101100;;;;
2022/08/19 03:41:02;;;;;;;1.5;1.4;;;;;;;19.6;100.0;101100;;;;
2022/08/19 03:42:10;;;;;;;1.5;1.4;;;;;;;19.5;100.0;101100;;;;
2022/08/19 03:43:01;;;;;;;1.5;1.4;;;;;;;19.5;100.0;101100;;;;
2022/08/19 03:44:00;;;;;;;1.5;1.4;;;;;;;19.5;100.0;101100;;;;
2022/08/19 03:45:00;;;;;;;1.0;1.0;;;;;;;19.5;100.0;101100;;;;
2022/08/19 03:46:02;;;;;;;1.0;1.0;;;;;;;19.5;100.0;101090;;;;
2022/08/19 03:47:00;;;;;;;1.0;1.0;;;;;;;19.5;100.0;101090;;;;
2022/08/19 03:48:00;;;;;;;1.0;1.0;;;;;;;19.5;100.0;101090;;;;
2022/08/19 03:49:07;;;;;;;1.0;1.0;;;;;;;19.5;100.0;101090;;;;
2022/08/19 03:50:00;;;;;;;1.0;1.0;;;;;;;19.5;100.0;101090;;;;
2022/08/19 03:51:00;;;;;;;1.0;1.0;;;;;;;19.5;100.0;101090;;;;
2022/08/19 03:52:00;;;;;;;1.0;1.0;;;;;;;19.5;100.0;101080;;;;
2022/08/19 03:53:00;;;;;;;1.0;1.0;;;;;;;19.5;100.0;101080;;;;
2022/08/19 03:54:02;;;;;;;1.0;1.0;;;;;;;19.5;100.0;101090;;;;
2022/08/19 03:55:00;;;;;;;1.0;1.0;;;;;;;19.5;100.0;101090;;;;
2022/08/19 03:56:00;;;;;;;1.0;1.0;;;;;;;19.5;100.0;101080;;;;
2022/08/19 03:57:00;;;;;;;1.0;1.0;;;;;;;19.5;100.0;101080;;;;
2022/08/19 03:58:00;;;;;;;1.0;1.0;;;;;;;19.5;100.0;101080;;;;
2022/08/19 03:59:00;;;;;;;1.0;1.0;;;;;;;19.5;100.0;101080;;;;
2022/08/19 04:00:11;;;;;;;1.0;1.0;;;;;;;19.4;100.0;101080;;;;
2022/08/19 04:01:00;;;;;;;1.0;1.0;;;;;;;19.4;100.0;101080;;;;
2022/08/19 04:02:01;;;;;;;1.0;1.0;;;;;;;19.5;100.0;101080;;;;
2022/08/19 04:03:01;;;;;;;1.0;1.0;;;;;;;19.5;100.0;101080;;;;
2022/08/19 04:04:00;;;;;;;1.0;1.0;;;;;;;19.4;100.0;101080;;;;
2022/08/19 04:05:00;;;;;;;1.5;1.2;;;;;;;19.4;100.0;101080;;;;
2022/08/19 04:06:10;;;;;;;1.5;1.2;;;;;;;19.4;100.0;101090;;;;
2022/08/19 04:07:00;;;;;;;1.5;1.2;;;;;;;19.4;100.0;101090;;;;
2022/08/19 04:08:00;;;;;;;1.5;1.2;;;;;;;19.4;100.0;101100;;;;
2022/08/19 04:09:02;;;;;;;1.5;1.2;;;;;;;19.4;100.0;101100;;;;
2022/08/19 04:10:00;;;;;;;1.5;1.2;;;;;;;19.4;100.0;101100;;;;
2022/08/19 04:11:00;;;;;;;1.5;1.2;;;;;;;19.4;100.0;101100;;;;
2022/08/19 04:12:00;;;;;;;1.5;1.2;;;;;;;19.2;100.0;101100;;;;
2022/08/19 04:13:00;;;;;;;1.5;1.2;;;;;;;19.2;100.0;101100;;;;
2022/08/19 04:14:04;;;;;;;1.5;1.2;;;;;;;19.1;100.0;101110;;;;
2022/08/19 04:15:00;;;;;;;1.5;1.2;;;;;;;19.1;100.0;101110;;;;
2022/08/19 04:16:00;;;;;;;1.5;1.2;;;;;;;19.2;100.0;101100;;;;
2022/08/19 04:17:01;;;;;;;1.5;1.2;;;;;;;19.2;100.0;101100;;;;
2022/08/19 04:18:00;;;;;;;1.5;1.2;;;;;;;19.2;100.0;101090;;;;
2022/08/19 04:19:00;;;;;;;1.5;1.2;;;;;;;19.2;100.0;101090;;;;
2022/08/19 04:20:00;;;;;;;1.5;1.2;;;;;;;19.2;100.0;101090;;;;
2022/08/19 04:21:00;;;;;;;1.5;1.2;;;;;;;19.2;100.0;101090;;;;
2022/08/19 04:22:00;;;;;;;1.5;1.2;;;;;;;19.2;100.0;101090;;;;
2022/08/19 04:23:00;;;;;;;1.5;1.2;;;;;;;19.2;100.0;101090;;;;
2022/08/19 04:24:00;;;;;;;1.5;1.2;;;;;;;19.2;100.0;101100;;;;
2022/08/19 04:25:00;;;;;;;0.8;0.8;;;;;;;19.2;100.0;101100;;;;
2022/08/19 04:26:00;;;;;;;0.8;0.8;;;;;;;19.2;100.0;101090;;;;
2022/08/19 04:27:01;;;;;;;0.8;0.8;;;;;;;19.2;100.0;101090;;;;
2022/08/19 04:28:00;;;;;;;0.8;0.8;;;;;;;19.2;100.0;101090;;;;
2022/08/19 04:29:02;;;;;;;0.8;0.8;;;;;;;19.2;100.0;101090;;;;
2022/08/19 04:30:00;;;;;;;0.8;0.8;;;;;;;19.1;100.0;101080;;;;
2022/08/19 04:31:00;;;;;;;0.8;0.8;;;;;;;19.1;100.0;101080;;;;
2022/08/19 04:32:09;;;;;;;0.8;0.8;;;;;;;19.1;100.0;101080;;;;
2022/08/19 04:33:00;;;;;;;0.8;0.8;;;;;;;19.1;100.0;101080;;;;
2022/08/19 04:34:02;;;;;;;0.8;0.8;;;;;;;19.0;100.0;101080;;;;
2022/08/19 04:35:01;;;;;;;0.8;0.8;;;;;;;19.0;100.0;101080;;;;
2022/08/19 04:36:00;;;;;;;0.8;0.8;;;;;;;19.0;100.0;101080;;;;
2022/08/19 04:37:00;;;;;;;0.8;0.8;;;;;;;19.0;100.0;101080;;;;
2022/08/19 04:38:00;;;;;;;0.8;0.8;;;;;;;19.0;100.0;101080;;;;
2022/08/19 04:39:01;;;;;;;0.8;0.8;;;;;;;19.0;100.0;101080;;;;
2022/08/19 04:43:00;;;;;;;0.8;0.8;;;;;;;19.0;100.0;101080;;;;
2022/08/19 04:44:04;;;;;;;0.8;0.8;;;;;;;19.0;100.0;101080;;;;
2022/08/19 04:45:00;;;;;;;1.0;1.0;;;;;;;19.0;100.0;101080;;;;
2022/08/19 04:46:10;;;;;;;1.0;1.0;;;;;;;19.0;100.0;101080;;;;
2022/08/19 04:47:02;;;;;;;1.0;1.0;;;;;;;19.0;100.0;101080;;;;
2022/08/19 04:48:10;;;;;;;1.0;1.0;;;;;;;19.0;100.0;101080;;;;
2022/08/19 04:49:11;;;;;;;1.0;1.0;;;;;;;19.0;100.0;101080;;;;
2022/08/19 04:50:00;;;;;;;1.0;1.0;;;;;;;19.0;100.0;101080;;;;
2022/08/19 04:51:00;;;;;;;1.0;1.0;;;;;;;19.0;100.0;101080;;;;
2022/08/19 04:52:00;;;;;;;1.0;1.0;;;;;;;18.9;100.0;101080;;;;
2022/08/19 04:53:00;;;;;;;1.0;1.0;;;;;;;18.9;100.0;101080;;;;
2022/08/19 04:54:00;;;;;;;1.0;1.0;;;;;;;18.9;100.0;101080;;;;
2022/08/19 04:55:00;;;;;;;1.0;1.0;;;;;;;18.9;100.0;101080;;;;
2022/08/19 04:56:03;;;;;;;1.0;1.0;;;;;;;18.9;100.0;101080;;;;
2022/08/19 04:57:00;;;;;;;1.0;1.0;;;;;;;18.9;100.0;101080;;;;
2022/08/19 04:58:00;;;;;;;1.0;1.0;;;;;;;18.9;100.0;101090;;;;
2022/08/19 04:59:03;;;;;;;1.0;1.0;;;;;;;18.9;100.0;101090;;;;
2022/08/19 05:00:00;;;;;;;1.0;1.0;;;;;;;18.8;100.0;101090;;;;
2022/08/19 05:01:00;;;;;;;1.0;1.0;;;;;;;18.8;100.0;101090;;;;
2022/08/19 05:02:00;;;;;;;1.0;1.0;;;;;;;18.9;100.0;101090;;;;
2022/08/19 05:03:02;;;;;;;1.0;1.0;;;;;;;18.9;100.0;101090;;;;
2022/08/19 05:04:01;;;;;;;1.0;1.0;;;;;;;18.9;100.0;101090;;;;
2022/08/19 05:05:00;;;;;;;1.0;1.0;;;;;;;18.9;100.0;101090;;;;
2022/08/19 05:06:08;;;;;;;1.0;1.0;;;;;;;18.9;100.0;101100;;;;
2022/08/19 05:07:01;;;;;;;1.0;1.0;;;;;;;18.9;100.0;101100;;;;
2022/08/19 05:08:00;;;;;;;1.0;1.0;;;;;;;18.8;100.0;101100;;;;
2022/08/19 05:09:01;;;;;;;1.0;1.0;;;;;;;18.8;100.0;101100;;;;
2022/08/19 05:10:00;;;;;;;1.0;1.0;;;;;;;18.9;100.0;101100;;;;
2022/08/19 05:11:00;;;;;;;1.0;1.0;;;;;;;18.9;100.0;101100;;;;
2022/08/19 05:12:00;;;;;;;1.0;1.0;;;;;;;18.8;100.0;101100;;;;
2022/08/19 05:13:00;;;;;;;1.0;1.0;;;;;;;18.8;100.0;101100;;;;
2022/08/19 05:14:00;;;;;;;1.0;1.0;;;;;;;18.8;100.0;101100;;;;
2022/08/19 05:15:00;;;;;;;1.0;1.0;;;;;;;18.8;100.0;101100;;;;
2022/08/19 05:16:00;;;;;;;1.0;1.0;;;;;;;18.9;100.0;101100;;;;
2022/08/19 05:17:10;;;;;;;1.0;1.0;;;;;;;18.8;100.0;101110;;;;
2022/08/19 05:23:01;;;;;;;1.0;1.0;;;;;;;18.8;100.0;101120;;;;
2022/08/19 05:24:00;;;;;;;1.0;1.0;;;;;;;18.7;100.0;101110;;;;
2022/08/19 05:25:13;;;;;;;0.8;0.8;;;;;;;18.8;100.0;101110;;;;
2022/08/19 05:26:00;;;;;;;0.8;0.8;;;;;;;18.8;100.0;101110;;;;
2022/08/19 05:27:02;;;;;;;0.8;0.8;;;;;;;18.8;100.0;101110;;;;
2022/08/19 05:28:00;;;;;;;0.8;0.8;;;;;;;18.7;100.0;101120;;;;
2022/08/19 05:29:00;;;;;;;0.8;0.8;;;;;;;18.7;100.0;101120;;;;
2022/08/19 05:30:01;;;;;;;0.8;0.8;;;;;;;18.8;100.0;101120;;;;
2022/08/19 05:31:00;;;;;;;0.8;0.8;;;;;;;18.8;100.0;101120;;;;
2022/08/19 05:32:01;;;;;;;0.8;0.8;;;;;;;18.8;100.0;101120;;;;
2022/08/19 05:33:00;;;;;;;0.8;0.8;;;;;;;18.8;100.0;101120;;;;
2022/08/19 05:34:00;;;;;;;0.8;0.8;;;;;;;18.8;100.0;101120;;;;
2022/08/19 05:35:00;;;;;;;0.8;0.8;;;;;;;18.8;100.0;101120;;;;
2022/08/19 05:36:01;;;;;;;0.8;0.8;;;;;;;18.7;100.0;101120;;;;
2022/08/19 05:37:01;;;;;;;0.8;0.8;;;;;;;18.7;100.0;101120;;;;
2022/08/19 05:38:00;;;;;;;0.8;0.8;;;;;;;18.8;100.0;101120;;;;
2022/08/19 05:39:00;;;;;;;0.8;0.8;;;;;;;18.8;100.0;101120;;;;
2022/08/19 05:40:01;;;;;;;0.8;0.8;;;;;;;18.8;100.0;101130;;;;
2022/08/19 05:41:00;;;;;;;0.8;0.8;;;;;;;18.8;100.0;101130;;;;
2022/08/19 05:42:02;;;;;;;0.8;0.8;;;;;;;18.8;100.0;101130;;;;
2022/08/19 05:43:00;;;;;;;0.8;0.8;;;;;;;18.8;100.0;101130;;;;
2022/08/19 05:44:05;;;;;;;0.8;0.8;;;;;;;18.9;100.0;101130;;;;
2022/08/19 05:45:00;;;;;;;0.7;0.7;;;;;;;18.9;100.0;101130;;;;
2022/08/19 05:46:00;;;;;;;0.7;0.7;;;;;;;19.0;100.0;101130;;;;
2022/08/19 05:47:01;;;;;;;0.7;0.7;;;;;;;19.0;100.0;101130;;;;
2022/08/19 05:48:00;;;;;;;0.7;0.7;;;;;;;19.0;100.0;101130;;;;
2022/08/19 05:49:00;;;;;;;0.7;0.7;;;;;;;19.0;100.0;101130;;;;
2022/08/19 05:50:02;;;;;;;0.7;0.7;;;;;;;19.0;100.0;101130;;;;
2022/08/19 05:51:05;;;;;;;0.7;0.7;;;;;;;19.0;100.0;101130;;;;
2022/08/19 05:52:02;;;;;;;0.7;0.7;;;;;;;19.1;100.0;101130;;;;
2022/08/19 05:53:00;;;;;;;0.7;0.7;;;;;;;19.1;100.0;101130;;;;
2022/08/19 05:54:00;;;;;;;0.7;0.7;;;;;;;19.0;100.0;101130;;;;
2022/08/19 05:55:00;;;;;;;0.7;0.7;;;;;;;19.0;100.0;101130;;;;
2022/08/19 05:56:08;;;;;;;0.7;0.7;;;;;;;19.1;100.0;101130;;;;
2022/08/19 05:57:00;;;;;;;0.7;0.7;;;;;;;19.1;100.0;101130;;;;
2022/08/19 05:58:01;;;;;;;0.7;0.7;;;;;;;19.2;100.0;101130;;;;
2022/08/19 05:59:00;;;;;;;0.7;0.7;;;;;;;19.2;100.0;101130;;;;
2022/08/19 06:00:01;;;;;;;0.7;0.7;;;;;;;19.1;100.0;101130;;;;
2022/08/19 06:01:05;;;;;;;0.7;0.7;;;;;;;19.1;100.0;101130;;;;
2022/08/19 06:02:00;;;;;;;0.7;0.7;;;;;;;19.0;100.0;101130;;;;
2022/08/19 06:03:02;;;;;;;0.7;0.7;;;;;;;19.0;100.0;101130;;;;
2022/08/19 06:04:00;;;;;;;0.7;0.7;;;;;;;19.2;100.0;101130;;;;
2022/08/19 06:05:01;;;;;;;1.0;1.0;;;;;;;19.2;100.0;101130;;;;
2022/08/19 06:06:00;;;;;;;1.0;1.0;;;;;;;19.2;100.0;101130;;;;
2022/08/19 06:07:10;;;;;;;1.0;1.0;;;;;;;19.1;100.0;101120;;;;
2022/08/19 06:08:00;;;;;;;1.0;1.0;;;;;;;19.1;100.0;101120;;;;
2022/08/19 06:09:01;;;;;;;1.0;1.0;;;;;;;19.1;100.0;101120;;;;
2022/08/19 06:10:01;;;;;;;1.0;1.0;;;;;;;19.2;100.0;101120;;;;
2022/08/19 06:11:10;;;;;;;1.0;1.0;;;;;;;19.2;100.0;101120;;;;
2022/08/19 06:12:02;;;;;;;1.0;1.0;;;;;;;19.2;100.0;101120;;;;
2022/08/19 06:13:00;;;;;;;1.0;1.0;;;;;;;19.2;100.0;101120;;;;
2022/08/19 06:14:02;;;;;;;1.0;1.0;;;;;;;19.2;100.0;101120;;;;
2022/08/19 06:15:02;;;;;;;1.0;1.0;;;;;;;19.2;100.0;101120;;;;
2022/08/19 06:16:00;;;;;;;1.0;1.0;;;;;;;19.4;100.0;101120;;;;
2022/08/19 06:17:06;;;;;;;1.0;1.0;;;;;;;19.4;100.0;101120;;;;
2022/08/19 06:18:00;;;;;;;1.0;1.0;;;;;;;19.4;100.0;101120;;;;
2022/08/19 06:19:00;;;;;;;1.0;1.0;;;;;;;19.4;100.0;101120;;;;
2022/08/19 06:20:00;;;;;;;1.0;1.0;;;;;;;19.4;100.0;101120;;;;
2022/08/19 06:21:03;;;;;;;1.0;1.0;;;;;;;19.4;100.0;101120;;;;
2022/08/19 06:22:01;;;;;;;1.0;1.0;;;;;;;19.3;100.0;101120;;;;
2022/08/19 06:23:00;;;;;;;1.0;1.0;;;;;;;19.3;100.0;101120;;;;
2022/08/19 06:24:00;;;;;;;1.0;1.0;;;;;;;19.4;100.0;101120;;;;
2022/08/19 06:25:00;;;;;;;1.4;1.3;;;;;;;19.4;100.0;101120;;;;
2022/08/19 06:26:00;;;;;;;1.4;1.3;;;;;;;19.5;100.0;101120;;;;
2022/08/19 06:27:01;;;;;;;1.4;1.3;;;;;;;19.5;100.0;101120;;;;
2022/08/19 06:28:11;;;;;;;1.4;1.3;;;;;;;19.5;100.0;101130;;;;
2022/08/19 06:29:00;;;;;;;1.4;1.3;;;;;;;19.5;100.0;101130;;;;
2022/08/19 06:30:00;;;;;;;1.4;1.3;;;;;;;19.6;100.0;101130;;;;
2022/08/19 06:31:05;;;;;;;1.4;1.3;;;;;;;19.6;100.0;101130;;;;